Augusta/Daniel Field, Georgia
Current Conditions -  °F | °C
As of 6:53 PM on Friday 19 Dec 2014 (Local Time) from KDNL Reporting Station
Clear Clear  
Wind Chill: 57°   Ceiling: Unl
Heat Index: 57°   Visibility: 10mi
Dew Point: 41°   Wind: 6mph
Humidity: 55%   Direction: 360°N
Pressure: 30.1"   Gusts: NA
Location:  33.47°N, 82.03°W
Report Text: KDNL 192353Z AUTO 36005KT 10SM CLR 14/05 A3010 RMK AO2 SLP193 T01390050 10178 20133 53005
Loading
Personal Weather Stations






























Interactive Weather Map New forecast layout! Learn more

10-Day Weather Forecast

Advertisements
Track Severe Weather on mobile